Time;durP1;ratioP1;P1;durP2;ratioP2;P2;SDS_P1;SDS_P2;PMS_P1;PMS_P2;Temp;Humidity;BMP_temperature;BMP_pressure;BME280_temperature;BME280_humidity;BME280_pressure;Samples;Min_cycle;Max_cycle;Signal;HPM_P1;HPM_P2
2023/01/02 00:00:08;;;;;;;16.25;11.40;;;;;;;;;;5001887;28;20042;-81
2023/01/02 00:02:40;;;;;;;16.55;11.27;;;;;;;;;;4986383;28;20049;-81
2023/01/02 00:05:09;;;;;;;12.95;9.70;;;;;;;;;;4992120;28;20033;-81
2023/01/02 00:07:35;;;;;;;14.73;10.88;;;;;;;;;;5008981;28;20033;-80
2023/01/02 00:10:06;;;;;;;16.02;12.18;;;;;;;;;;4992352;28;20488;-81
2023/01/02 00:12:37;;;;;;;15.98;11.25;;;;;;;;;;4971548;28;20041;-81
2023/01/02 00:15:08;;;;;;;14.70;10.63;;;;;;;;;;4989501;28;20400;-81
2023/01/02 00:17:34;;;;;;;13.90;9.45;;;;;;;;;;5004187;28;20037;-81
2023/01/02 00:20:00;;;;;;;16.00;10.10;;;;;;;;;;5003814;28;21890;-81
2023/01/02 00:22:32;;;;;;;17.15;10.95;;;;;;;;;;4985541;28;20033;-81
2023/01/02 00:25:07;;;;;;;17.98;8.93;;;;;;;;;;5002194;28;20026;-82
2023/01/02 00:27:35;;;;;;;14.02;10.45;;;;;;;;;;5000600;28;20034;-81
2023/01/02 00:30:04;;;;;;;16.13;11.00;;;;;;;;;;4987784;28;20053;-80
2023/01/02 00:32:30;;;;;;;14.13;11.73;;;;;;;;;;4987252;28;20037;-82
2023/01/02 00:35:17;;;;;;;13.38;9.88;;;;;;;;;;5006555;28;20057;-82
2023/01/02 00:37:48;;;;;;;11.75;8.52;;;;;;;;;;5001185;28;20901;-80
2023/01/02 00:40:17;;;;;;;11.05;9.38;;;;;;;;;;5001010;28;20033;-81
2023/01/02 00:42:50;;;;;;;10.23;9.15;;;;;;;;;;4970705;28;20037;-81
2023/01/02 00:45:16;;;;;;;11.63;8.65;;;;;;;;;;5001890;28;20041;-81
2023/01/02 00:47:47;;;;;;;13.77;9.57;;;;;;;;;;5003086;28;20038;-81
2023/01/02 00:50:18;;;;;;;16.00;10.02;;;;;;;;;;4984229;28;20049;-80
2023/01/02 00:52:44;;;;;;;23.58;11.63;;;;;;;;;;4987917;28;20045;-80
2023/01/02 00:55:17;;;;;;;15.48;10.60;;;;;;;;;;5001322;28;20399;-80
2023/01/02 00:57:43;;;;;;;12.30;9.23;;;;;;;;;;5002844;28;20034;-81
2023/01/02 01:00:09;;;;;;;13.02;10.32;;;;;;;;;;4983331;28;20045;-81
2023/01/02 01:02:35;;;;;;;16.95;9.55;;;;;;;;;;5001889;28;20049;-81
2023/01/02 01:05:04;;;;;;;11.77;8.02;;;;;;;;;;4984852;28;20053;-81
2023/01/02 01:07:30;;;;;;;17.73;11.05;;;;;;;;;;5000290;28;20045;-80
2023/01/02 01:09:59;;;;;;;17.10;10.90;;;;;;;;;;4976076;28;20034;-81
2023/01/02 01:12:25;;;;;;;16.60;10.40;;;;;;;;;;4972403;28;20037;-80
2023/01/02 01:14:53;;;;;;;14.35;10.57;;;;;;;;;;4988117;28;20034;-80
2023/01/02 01:17:20;;;;;;;11.60;10.40;;;;;;;;;;4986680;28;20030;-80
2023/01/02 01:19:48;;;;;;;10.63;8.98;;;;;;;;;;4984871;28;20041;-80
2023/01/02 01:22:14;;;;;;;13.40;8.90;;;;;;;;;;4996699;28;20397;-80
2023/01/02 01:24:45;;;;;;;14.07;9.05;;;;;;;;;;5000094;28;20488;-80
2023/01/02 01:27:19;;;;;;;13.68;8.95;;;;;;;;;;4967465;28;20044;-80
2023/01/02 01:29:45;;;;;;;17.73;9.70;;;;;;;;;;4985591;28;20484;-80
2023/01/02 01:32:15;;;;;;;15.32;9.38;;;;;;;;;;5000654;28;20042;-80
2023/01/02 01:34:44;;;;;;;12.55;10.05;;;;;;;;;;5001752;28;20046;-81
2023/01/02 01:37:11;;;;;;;12.50;9.63;;;;;;;;;;4983066;28;20042;-81
2023/01/02 01:39:37;;;;;;;12.85;9.40;;;;;;;;;;4968298;28;20033;-80
2023/01/02 01:42:03;;;;;;;12.02;8.55;;;;;;;;;;5001925;28;20033;-81
2023/01/02 01:44:49;;;;;;;11.88;9.52;;;;;;;;;;5004607;28;20026;-81
2023/01/02 01:47:36;;;;;;;13.80;9.90;;;;;;;;;;4990175;28;20646;-81
2023/01/02 01:50:28;;;;;;;16.02;9.98;;;;;;;;;;4983181;28;20472;-81
2023/01/02 01:53:26;;;;;;;16.00;11.10;;;;;;;;;;4997717;28;20527;-81
2023/01/02 01:55:55;;;;;;;15.55;10.90;;;;;;;;;;4989044;28;20050;-81
2023/01/02 01:58:49;;;;;;;21.73;12.02;;;;;;;;;;4984697;28;20050;-81
2023/01/02 02:01:20;;;;;;;14.63;10.45;;;;;;;;;;4987339;28;20057;-81
2023/01/02 02:03:49;;;;;;;14.70;9.80;;;;;;;;;;5004041;28;20048;-81
2023/01/02 02:06:23;;;;;;;23.38;11.88;;;;;;;;;;4971263;28;20037;-81
2023/01/02 02:08:54;;;;;;;16.20;10.27;;;;;;;;;;5003103;28;20045;-80
2023/01/02 02:11:32;;;;;;;13.45;11.52;;;;;;;;;;4986622;28;20041;-79
2023/01/02 02:13:59;;;;;;;14.10;10.07;;;;;;;;;;5000475;28;20044;-80
2023/01/02 02:16:43;;;;;;;15.18;10.32;;;;;;;;;;4985302;28;20428;-80
2023/01/02 02:19:12;;;;;;;21.83;11.18;;;;;;;;;;5000163;28;20046;-80
2023/01/02 02:21:49;;;;;;;13.38;9.57;;;;;;;;;;5001949;28;20037;-80
2023/01/02 02:24:33;;;;;;;12.75;10.48;;;;;;;;;;5000421;28;20037;-80
2023/01/02 02:27:11;;;;;;;15.80;9.90;;;;;;;;;;5001583;28;20042;-80
2023/01/02 02:30:04;;;;;;;14.10;9.07;;;;;;;;;;5000288;28;20057;-80
2023/01/02 02:32:58;;;;;;;12.82;9.65;;;;;;;;;;4999305;28;20382;-80
2023/01/02 02:35:49;;;;;;;13.35;10.25;;;;;;;;;;5000362;28;20030;-80
2023/01/02 02:39:06;;;;;;;13.77;9.90;;;;;;;;;;4998104;28;20704;-80
2023/01/02 02:41:56;;;;;;;15.52;9.93;;;;;;;;;;4974051;28;20435;-80
2023/01/02 02:44:39;;;;;;;13.60;9.18;;;;;;;;;;4985095;28;20034;-80
2023/01/02 02:47:16;;;;;;;14.38;10.02;;;;;;;;;;4989824;28;20395;-80
2023/01/02 02:50:09;;;;;;;12.43;8.82;;;;;;;;;;4987175;28;20033;-80
2023/01/02 02:52:51;;;;;;;13.65;9.23;;;;;;;;;;4982252;28;20660;-80
2023/01/02 02:55:27;;;;;;;12.88;8.02;;;;;;;;;;4986223;28;20042;-80
2023/01/02 02:57:59;;;;;;;12.10;7.88;;;;;;;;;;5001179;28;20587;-80
2023/01/02 03:00:27;;;;;;;11.02;9.30;;;;;;;;;;5000721;28;20045;-80
2023/01/02 03:02:58;;;;;;;9.83;7.27;;;;;;;;;;5003189;28;20053;-80
2023/01/02 03:05:30;;;;;;;12.57;9.45;;;;;;;;;;4983871;28;20041;-80
2023/01/02 03:08:10;;;;;;;9.77;8.35;;;;;;;;;;4999593;28;20037;-80
2023/01/02 03:11:01;;;;;;;12.85;8.50;;;;;;;;;;4977890;28;20038;-80
2023/01/02 03:13:43;;;;;;;16.85;9.30;;;;;;;;;;4987387;28;20045;-80
2023/01/02 03:16:11;;;;;;;11.90;8.23;;;;;;;;;;5011079;28;20385;-80
2023/01/02 03:19:02;;;;;;;13.23;8.88;;;;;;;;;;5007965;28;20044;-80
2023/01/02 03:22:13;;;;;;;9.93;8.23;;;;;;;;;;5005552;28;20048;-80
2023/01/02 03:24:43;;;;;;;10.82;8.85;;;;;;;;;;4981764;28;20050;-80
2023/01/02 03:27:14;;;;;;;11.18;8.98;;;;;;;;;;4968193;28;20030;-80
2023/01/02 03:29:50;;;;;;;11.95;8.75;;;;;;;;;;4989218;28;20038;-80
2023/01/02 03:32:32;;;;;;;18.10;8.75;;;;;;;;;;4994015;28;20041;-81
2023/01/02 03:35:08;;;;;;;13.90;8.38;;;;;;;;;;4986426;28;20041;-80
2023/01/02 03:37:38;;;;;;;10.13;8.18;;;;;;;;;;4985818;28;20414;-80
2023/01/02 03:40:10;;;;;;;11.05;7.25;;;;;;;;;;4987528;28;20057;-80
2023/01/02 03:42:45;;;;;;;22.15;8.23;;;;;;;;;;4939203;28;20034;-80
2023/01/02 03:45:15;;;;;;;12.73;8.93;;;;;;;;;;5004001;28;20041;-81
2023/01/02 03:47:55;;;;;;;22.90;7.47;;;;;;;;;;5000413;28;20072;-81
2023/01/02 03:50:28;;;;;;;13.05;7.10;;;;;;;;;;5003448;28;20045;-81
2023/01/02 03:53:03;;;;;;;12.95;8.60;;;;;;;;;;5004083;28;20511;-81
2023/01/02 03:55:33;;;;;;;17.83;9.48;;;;;;;;;;4969240;28;20037;-81
2023/01/02 03:58:10;;;;;;;11.80;7.47;;;;;;;;;;5002290;28;20416;-80
2023/01/02 04:00:54;;;;;;;11.32;7.85;;;;;;;;;;4971658;28;20042;-81
2023/01/02 04:03:24;;;;;;;11.65;9.00;;;;;;;;;;5002949;28;20034;-81
2023/01/02 04:05:58;;;;;;;14.45;8.98;;;;;;;;;;5013079;28;20045;-80
2023/01/02 04:08:29;;;;;;;10.70;8.00;;;;;;;;;;4970421;28;20049;-80
2023/01/02 04:10:57;;;;;;;9.95;7.65;;;;;;;;;;4970499;28;20041;-80
2023/01/02 04:13:52;;;;;;;15.27;9.48;;;;;;;;;;4968457;28;20037;-80
2023/01/02 04:16:22;;;;;;;9.30;7.53;;;;;;;;;;4968528;28;20523;-80
2023/01/02 04:19:22;;;;;;;12.15;8.57;;;;;;;;;;4985334;28;20666;-80
2023/01/02 04:21:51;;;;;;;23.45;9.07;;;;;;;;;;4985621;28;20042;-80
2023/01/02 04:24:41;;;;;;;11.63;7.75;;;;;;;;;;5003553;28;20064;-80
2023/01/02 04:27:17;;;;;;;12.45;8.73;;;;;;;;;;5000800;28;20965;-80
2023/01/02 04:29:43;;;;;;;11.73;7.00;;;;;;;;;;5003316;28;20041;-80
2023/01/02 04:32:18;;;;;;;10.93;8.27;;;;;;;;;;5003242;28;20036;-81
2023/01/02 04:34:48;;;;;;;10.75;6.93;;;;;;;;;;4986843;28;20038;-81
2023/01/02 04:37:31;;;;;;;11.43;7.35;;;;;;;;;;4966664;28;20045;-81
2023/01/02 04:40:13;;;;;;;11.10;9.23;;;;;;;;;;4999817;28;21195;-81
2023/01/02 04:42:42;;;;;;;17.67;9.82;;;;;;;;;;4984686;28;20038;-81
2023/01/02 04:45:10;;;;;;;15.25;8.57;;;;;;;;;;4997458;28;20037;-81
2023/01/02 04:47:39;;;;;;;11.57;8.85;;;;;;;;;;5002529;28;20377;-82
2023/01/02 04:50:06;;;;;;;10.80;9.18;;;;;;;;;;4984055;28;20407;-81
2023/01/02 04:52:39;;;;;;;12.73;9.70;;;;;;;;;;4983724;28;20049;-81
2023/01/02 04:55:10;;;;;;;14.38;10.02;;;;;;;;;;5000324;28;20042;-81
2023/01/02 04:57:41;;;;;;;17.35;11.32;;;;;;;;;;4953008;28;20033;-81
2023/01/02 05:00:10;;;;;;;18.00;10.93;;;;;;;;;;5001521;28;20042;-82
2023/01/02 05:02:38;;;;;;;9.40;6.68;;;;;;;;;;4985846;28;20038;-81
2023/01/02 05:05:08;;;;;;;11.90;8.48;;;;;;;;;;4983913;28;20049;-81
2023/01/02 05:07:35;;;;;;;13.75;10.18;;;;;;;;;;4973236;28;20037;-81
2023/01/02 05:10:02;;;;;;;11.30;9.70;;;;;;;;;;4987075;28;20721;-81
2023/01/02 05:12:31;;;;;;;13.52;10.27;;;;;;;;;;4951822;28;20049;-81
2023/01/02 05:14:57;;;;;;;16.48;9.20;;;;;;;;;;4951395;28;20042;-80
2023/01/02 05:17:26;;;;;;;11.23;8.90;;;;;;;;;;4983416;28;20392;-81
2023/01/02 05:19:54;;;;;;;11.30;8.05;;;;;;;;;;5000708;28;20045;-81
2023/01/02 05:25:10;;;;;;;39.92;18.17;;;;;;;;;;5002408;28;20041;-81
2023/01/02 05:27:36;;;;;;;19.17;13.45;;;;;;;;;;4984009;28;20488;-81
2023/01/02 05:30:03;;;;;;;19.30;14.50;;;;;;;;;;4997220;28;20053;-80
2023/01/02 05:32:32;;;;;;;14.30;12.27;;;;;;;;;;4999487;28;20052;-81
2023/01/02 05:35:05;;;;;;;13.77;10.60;;;;;;;;;;5001125;28;20033;-81
2023/01/02 05:37:35;;;;;;;11.65;7.00;;;;;;;;;;5001107;28;20407;-81
2023/01/02 05:40:04;;;;;;;14.15;8.93;;;;;;;;;;5003159;28;20037;-80
2023/01/02 05:42:33;;;;;;;9.55;7.55;;;;;;;;;;4987423;28;20045;-81
2023/01/02 05:45:01;;;;;;;9.85;7.75;;;;;;;;;;4983226;28;20583;-80
2023/01/02 05:47:27;;;;;;;17.40;9.18;;;;;;;;;;4975560;28;20037;-80
2023/01/02 05:49:55;;;;;;;14.13;8.52;;;;;;;;;;4973173;28;20048;-81
2023/01/02 05:52:26;;;;;;;10.20;8.25;;;;;;;;;;4980266;28;20044;-80
2023/01/02 05:54:52;;;;;;;14.07;9.05;;;;;;;;;;4972210;28;20048;-81
2023/01/02 05:57:20;;;;;;;16.40;10.90;;;;;;;;;;4989300;28;20037;-81
2023/01/02 05:59:51;;;;;;;12.65;9.15;;;;;;;;;;4988235;28;20045;-81
2023/01/02 06:02:19;;;;;;;10.63;7.60;;;;;;;;;;4989968;28;20034;-81
2023/01/02 06:04:45;;;;;;;12.35;7.13;;;;;;;;;;4972970;28;20046;-81
2023/01/02 06:07:11;;;;;;;8.70;6.70;;;;;;;;;;4995262;28;20519;-81
2023/01/02 06:09:37;;;;;;;11.95;7.40;;;;;;;;;;4993678;28;20045;-81
2023/01/02 06:12:04;;;;;;;28.40;13.63;;;;;;;;;;4998802;28;20676;-81
2023/01/02 06:14:30;;;;;;;16.17;14.52;;;;;;;;;;4996766;28;20048;-81
2023/01/02 06:17:00;;;;;;;24.33;11.63;;;;;;;;;;4978368;28;20514;-81
2023/01/02 06:19:31;;;;;;;15.30;8.27;;;;;;;;;;4980741;28;20049;-81
2023/01/02 06:21:57;;;;;;;11.73;9.02;;;;;;;;;;4977970;28;20045;-81
2023/01/02 06:24:32;;;;;;;18.67;10.43;;;;;;;;;;4995907;28;20045;-81
2023/01/02 06:26:58;;;;;;;18.33;11.40;;;;;;;;;;4997047;28;20432;-81
2023/01/02 06:29:27;;;;;;;11.60;8.70;;;;;;;;;;4980588;28;20522;-81
2023/01/02 06:31:53;;;;;;;11.10;8.73;;;;;;;;;;4961650;28;20045;-81
2023/01/02 06:34:23;;;;;;;15.27;9.15;;;;;;;;;;4970664;28;20042;-81
2023/01/02 06:36:52;;;;;;;13.43;9.18;;;;;;;;;;4995900;28;21181;-81
2023/01/02 06:39:23;;;;;;;13.93;8.48;;;;;;;;;;4999941;28;20033;-81
2023/01/02 06:41:52;;;;;;;13.70;10.13;;;;;;;;;;4964171;28;20041;-81
2023/01/02 06:44:18;;;;;;;13.02;10.25;;;;;;;;;;4998164;28;20041;-81
2023/01/02 06:46:46;;;;;;;14.25;7.75;;;;;;;;;;4999170;28;20038;-81
2023/01/02 06:49:12;;;;;;;11.25;8.38;;;;;;;;;;4980842;28;20042;-81
2023/01/02 06:51:42;;;;;;;10.93;7.75;;;;;;;;;;4984526;28;20037;-81
2023/01/02 06:54:08;;;;;;;12.63;9.30;;;;;;;;;;4999643;28;20034;-81
2023/01/02 06:56:36;;;;;;;13.77;8.25;;;;;;;;;;5012125;28;20399;-81
2023/01/02 06:59:05;;;;;;;15.98;9.23;;;;;;;;;;5012520;28;20033;-81
2023/01/02 07:01:33;;;;;;;11.30;9.43;;;;;;;;;;5016502;28;20053;-81
2023/01/02 07:03:59;;;;;;;12.20;10.80;;;;;;;;;;5012055;28;20036;-81
2023/01/02 07:06:26;;;;;;;14.95;10.65;;;;;;;;;;4962959;28;20034;-81
2023/01/02 07:08:55;;;;;;;13.93;9.95;;;;;;;;;;5011143;28;20029;-81
2023/01/02 07:11:26;;;;;;;13.63;10.90;;;;;;;;;;4995505;28;20052;-81
2023/01/02 07:13:57;;;;;;;17.63;10.05;;;;;;;;;;5012113;28;20226;-81
2023/01/02 07:16:25;;;;;;;14.63;11.00;;;;;;;;;;4994190;28;20060;-81
2023/01/02 07:18:54;;;;;;;12.98;10.43;;;;;;;;;;4995378;28;20107;-81
2023/01/02 07:21:22;;;;;;;13.27;9.90;;;;;;;;;;4981838;28;20045;-81
2023/01/02 07:23:51;;;;;;;12.32;8.50;;;;;;;;;;5004196;28;20044;-80
2023/01/02 07:26:17;;;;;;;20.13;12.07;;;;;;;;;;5000833;28;20045;-81
2023/01/02 07:28:46;;;;;;;24.92;15.25;;;;;;;;;;5010669;28;20488;-82
2023/01/02 07:31:18;;;;;;;26.27;14.95;;;;;;;;;;4948320;28;20049;-81
2023/01/02 07:33:45;;;;;;;17.35;12.32;;;;;;;;;;4992011;28;20034;-82
2023/01/02 07:36:13;;;;;;;19.02;10.77;;;;;;;;;;4975806;28;20045;-81
2023/01/02 07:38:42;;;;;;;13.55;10.25;;;;;;;;;;4990820;28;20042;-82
2023/01/02 07:41:16;;;;;;;15.23;11.18;;;;;;;;;;5012797;28;20038;-80
2023/01/02 07:43:47;;;;;;;12.95;10.35;;;;;;;;;;4978073;28;20056;-82
2023/01/02 07:46:19;;;;;;;15.38;11.05;;;;;;;;;;4977020;28;20038;-81
2023/01/02 07:48:49;;;;;;;15.65;10.75;;;;;;;;;;5010147;28;20033;-82
2023/01/02 07:51:15;;;;;;;13.93;10.35;;;;;;;;;;4993821;28;20044;-82
2023/01/02 07:53:48;;;;;;;13.15;9.73;;;;;;;;;;4960044;28;20041;-82
2023/01/02 07:56:14;;;;;;;13.57;10.25;;;;;;;;;;4988543;28;20061;-82
2023/01/02 07:58:43;;;;;;;12.65;9.30;;;;;;;;;;5008362;28;20060;-82
2023/01/02 08:01:11;;;;;;;10.73;8.77;;;;;;;;;;5005903;28;20396;-82
2023/01/02 08:03:42;;;;;;;12.18;9.02;;;;;;;;;;4997964;28;20045;-82
2023/01/02 08:06:13;;;;;;;16.30;8.90;;;;;;;;;;4992381;28;20038;-82
2023/01/02 08:08:44;;;;;;;12.80;10.85;;;;;;;;;;4992348;28;20416;-81
2023/01/02 08:11:16;;;;;;;17.52;10.73;;;;;;;;;;5009828;28;20038;-82
2023/01/02 08:13:45;;;;;;;14.75;12.30;;;;;;;;;;5012256;28;20073;-82
2023/01/02 08:16:17;;;;;;;13.95;8.90;;;;;;;;;;4960482;28;20038;-82
2023/01/02 08:18:45;;;;;;;12.27;10.15;;;;;;;;;;4992736;28;20038;-82
2023/01/02 08:21:11;;;;;;;16.77;10.93;;;;;;;;;;4960277;28;20051;-81
2023/01/02 08:23:38;;;;;;;11.65;10.35;;;;;;;;;;5011224;28;20040;-82
2023/01/02 08:26:08;;;;;;;17.25;10.15;;;;;;;;;;4990499;28;20283;-82
2023/01/02 08:28:37;;;;;;;16.35;11.02;;;;;;;;;;4975033;28;20036;-82
2023/01/02 08:31:17;;;;;;;13.50;9.15;;;;;;;;;;4972162;28;20030;-82
2023/01/02 08:33:48;;;;;;;21.88;11.50;;;;;;;;;;4961436;28;20484;-82
2023/01/02 08:36:16;;;;;;;21.52;12.52;;;;;;;;;;4998869;28;20412;-82
2023/01/02 08:38:44;;;;;;;18.92;11.43;;;;;;;;;;5006175;28;20037;-82
2023/01/02 08:41:14;;;;;;;16.15;10.50;;;;;;;;;;5011443;28;20395;-82
2023/01/02 08:43:45;;;;;;;15.75;13.35;;;;;;;;;;4974030;28;20496;-82
2023/01/02 08:46:13;;;;;;;15.70;11.48;;;;;;;;;;4992915;28;20034;-80
2023/01/02 08:48:44;;;;;;;13.77;11.38;;;;;;;;;;5007897;28;20447;-82
2023/01/02 08:51:10;;;;;;;14.57;12.15;;;;;;;;;;5003520;28;20412;-82
2023/01/02 08:53:36;;;;;;;14.40;11.20;;;;;;;;;;5002590;28;20030;-82
2023/01/02 08:56:20;;;;;;;15.73;10.32;;;;;;;;;;5005761;28;20037;-82
2023/01/02 08:59:01;;;;;;;27.23;16.52;;;;;;;;;;5007191;28;20042;-82
2023/01/02 09:01:33;;;;;;;21.95;16.65;;;;;;;;;;5005409;28;20041;-80
2023/01/02 09:04:04;;;;;;;;;;;;;;;;;;4989904;28;20506;-80
2023/01/02 09:06:33;;;;;;;21.05;16.35;;;;;;;;;;4999429;28;19913;-80
2023/01/02 09:09:03;;;;;;;18.40;13.27;;;;;;;;;;4986412;28;20033;-80
2023/01/02 09:11:34;;;;;;;19.27;14.60;;;;;;;;;;4964198;28;20467;-80
2023/01/02 09:14:01;;;;;;;25.23;15.52;;;;;;;;;;4974791;28;20044;-82
2023/01/02 09:16:28;;;;;;;22.30;16.88;;;;;;;;;;5007719;28;20480;-81
2023/01/02 09:18:59;;;;;;;22.05;16.42;;;;;;;;;;5008060;28;20034;-81
2023/01/02 09:21:25;;;;;;;19.35;15.98;;;;;;;;;;5009469;28;20041;-81
2023/01/02 09:23:51;;;;;;;22.30;16.58;;;;;;;;;;5008993;28;20030;-81
2023/01/02 09:26:20;;;;;;;18.88;15.75;;;;;;;;;;5002863;28;20038;-81
2023/01/02 09:28:48;;;;;;;21.48;16.42;;;;;;;;;;5006697;28;20033;-81
2023/01/02 09:31:16;;;;;;;19.50;15.35;;;;;;;;;;4977423;28;20037;-81
2023/01/02 09:33:45;;;;;;;19.42;16.92;;;;;;;;;;4991533;28;20045;-81
2023/01/02 09:36:17;;;;;;;17.80;15.05;;;;;;;;;;4991293;28;20033;-81
2023/01/02 09:38:49;;;;;;;21.90;15.20;;;;;;;;;;5001077;28;20033;-81
2023/01/02 09:41:23;;;;;;;20.55;16.20;;;;;;;;;;4976523;28;20404;-81
2023/01/02 09:44:11;;;;;;;18.83;16.38;;;;;;;;;;5009790;28;20046;-81
2023/01/02 09:47:05;;;;;;;18.65;16.23;;;;;;;;;;4985254;28;20049;-81
2023/01/02 09:49:39;;;;;;;19.30;15.85;;;;;;;;;;4974734;28;20603;-81
2023/01/02 09:52:10;;;;;;;19.40;15.18;;;;;;;;;;4992833;28;20037;-81
2023/01/02 09:54:41;;;;;;;19.50;12.70;;;;;;;;;;4992601;28;20038;-81
2023/01/02 09:57:16;;;;;;;24.40;14.57;;;;;;;;;;5007861;28;20042;-81
2023/01/02 10:00:08;;;;;;;16.73;12.50;;;;;;;;;;5009925;28;20089;-81
2023/01/02 10:02:59;;;;;;;16.42;11.10;;;;;;;;;;4960559;28;20046;-81
2023/01/02 10:05:59;;;;;;;14.85;10.63;;;;;;;;;;5013199;28;20045;-81
2023/01/02 10:08:49;;;;;;;17.15;11.32;;;;;;;;;;4999252;28;20043;-81
2023/01/02 10:11:44;;;;;;;14.13;11.98;;;;;;;;;;5009535;28;20042;-81
2023/01/02 10:14:44;;;;;;;22.75;14.65;;;;;;;;;;4974275;28;20088;-82
2023/01/02 10:17:16;;;;;;;17.15;14.55;;;;;;;;;;4980950;28;20052;-82
2023/01/02 10:20:16;;;;;;;17.88;14.02;;;;;;;;;;4992690;28;20037;-82
2023/01/02 10:22:49;;;;;;;17.80;12.95;;;;;;;;;;4978514;28;20049;-82
2023/01/02 10:25:35;;;;;;;19.52;12.80;;;;;;;;;;4997619;28;20045;-82
2023/01/02 10:28:20;;;;;;;19.27;13.27;;;;;;;;;;4989541;28;20026;-83
2023/01/02 10:30:53;;;;;;;16.98;13.93;;;;;;;;;;4972386;28;20483;-82
2023/01/02 10:33:42;;;;;;;17.02;13.60;;;;;;;;;;4989205;28;20042;-81
2023/01/02 10:36:21;;;;;;;21.35;14.35;;;;;;;;;;5010499;28;20033;-81
2023/01/02 10:41:07;;;;;;;11.80;9.55;;;;;;;;;;5024756;27;20423;-81
2023/01/02 10:44:59;;;;;;;20.92;9.25;;;;;;;;;;5053923;27;20418;-81
2023/01/02 10:47:32;;;;;;;9.32;5.10;;;;;;;;;;5039026;28;20418;-81
2023/01/02 10:50:00;;;;;;;12.48;4.63;;;;;;;;;;5048006;28;20047;-81
2023/01/02 10:52:32;;;;;;;15.43;3.78;;;;;;;;;;5048018;28;20775;-81
2023/01/02 10:55:00;;;;;;;6.40;3.15;;;;;;;;;;5061440;28;20057;-81
2023/01/02 10:57:40;;;;;;;8.23;4.70;;;;;;;;;;5049429;28;20525;-81
2023/01/02 11:00:25;;;;;;;7.90;2.72;;;;;;;;;;5039696;28;20053;-81
2023/01/02 11:02:56;;;;;;;8.55;2.80;;;;;;;;;;5044685;28;20046;-81
2023/01/02 11:05:25;;;;;;;7.55;3.50;;;;;;;;;;5048637;28;20407;-82
2023/01/02 11:07:53;;;;;;;4.70;2.45;;;;;;;;;;5067544;28;20418;-81
2023/01/02 11:10:26;;;;;;;5.70;3.13;;;;;;;;;;5066566;28;20422;-82
2023/01/02 11:12:53;;;;;;;5.72;3.67;;;;;;;;;;5042529;28;20045;-81
2023/01/02 11:15:29;;;;;;;5.18;3.42;;;;;;;;;;5030352;28;20418;-81
2023/01/02 11:17:57;;;;;;;4.60;2.28;;;;;;;;;;5059169;28;20045;-82
2023/01/02 11:20:29;;;;;;;10.43;3.25;;;;;;;;;;5062426;28;20041;-82
2023/01/02 11:22:58;;;;;;;4.95;2.80;;;;;;;;;;5025228;28;20104;-81
2023/01/02 11:25:27;;;;;;;5.72;3.00;;;;;;;;;;5048198;28;20045;-82
2023/01/02 11:27:57;;;;;;;9.73;2.85;;;;;;;;;;5057607;28;20064;-81
2023/01/02 11:30:35;;;;;;;7.18;2.80;;;;;;;;;;5059706;28;20057;-81
2023/01/02 11:33:08;;;;;;;3.70;2.50;;;;;;;;;;5048037;28;20037;-81
2023/01/02 11:35:39;;;;;;;9.35;3.45;;;;;;;;;;5050149;28;20056;-81
2023/01/02 11:38:14;;;;;;;5.68;3.58;;;;;;;;;;5055781;28;20045;-82
2023/01/02 11:40:51;;;;;;;4.45;2.05;;;;;;;;;;5058879;28;20045;-81
2023/01/02 11:46:28;;;;;;;5.93;2.80;;;;;;;;;;5055658;28;20032;-81
2023/01/02 11:49:02;;;;;;;8.70;3.30;;;;;;;;;;5058669;28;20048;-82
2023/01/02 11:51:32;;;;;;;8.63;3.30;;;;;;;;;;5059031;28;20040;-82
2023/01/02 11:54:01;;;;;;;9.73;3.70;;;;;;;;;;5051183;28;20041;-81
2023/01/02 11:56:31;;;;;;;5.13;2.90;;;;;;;;;;5036098;28;20045;-81
2023/01/02 11:59:01;;;;;;;8.40;4.78;;;;;;;;;;5029001;28;20048;-81
2023/01/02 12:01:38;;;;;;;7.28;2.85;;;;;;;;;;5045608;28;20045;-81
2023/01/02 12:04:05;;;;;;;4.88;3.13;;;;;;;;;;5041742;28;20040;-81
2023/01/02 12:06:42;;;;;;;5.13;3.47;;;;;;;;;;5039674;28;20102;-81
2023/01/02 12:09:11;;;;;;;4.63;2.70;;;;;;;;;;5044975;28;20071;-82
2023/01/02 12:11:52;;;;;;;5.63;2.17;;;;;;;;;;5045641;28;20099;-81
2023/01/02 12:14:21;;;;;;;6.82;2.95;;;;;;;;;;5023642;28;20050;-81
2023/01/02 12:16:54;;;;;;;6.07;2.38;;;;;;;;;;5030715;28;20060;-81
2023/01/02 12:19:55;;;;;;;7.78;3.40;;;;;;;;;;5026886;28;20052;-81
2023/01/02 12:22:32;;;;;;;7.63;3.22;;;;;;;;;;5022866;28;20515;-82
2023/01/02 12:25:08;;;;;;;7.82;6.13;;;;;;;;;;5050415;28;20068;-82
2023/01/02 12:27:44;;;;;;;5.35;3.45;;;;;;;;;;5034861;28;20042;-82
2023/01/02 12:30:13;;;;;;;9.93;3.47;;;;;;;;;;5034300;28;20053;-82
2023/01/02 12:33:00;;;;;;;6.70;3.33;;;;;;;;;;5032998;28;20071;-82
2023/01/02 12:35:46;;;;;;;8.57;4.50;;;;;;;;;;5032423;28;20480;-83
2023/01/02 12:38:17;;;;;;;7.68;3.00;;;;;;;;;;5032732;28;20573;-83
2023/01/02 12:40:52;;;;;;;3.50;2.28;;;;;;;;;;5032082;28;20061;-83
2023/01/02 12:43:36;;;;;;;9.05;3.50;;;;;;;;;;5038436;28;20120;-82
2023/01/02 12:46:14;;;;;;;7.70;4.20;;;;;;;;;;5038677;28;20431;-80
2023/01/02 12:49:06;;;;;;;8.82;4.30;;;;;;;;;;5032672;28;20042;-83
2023/01/02 12:51:37;;;;;;;7.07;3.42;;;;;;;;;;5027478;28;20503;-83
2023/01/02 12:54:28;;;;;;;6.10;2.88;;;;;;;;;;5045499;28;20056;-83
2023/01/02 12:57:02;;;;;;;4.80;2.50;;;;;;;;;;5017058;28;20416;-83
2023/01/02 13:00:10;;;;;;;4.07;2.10;;;;;;;;;;5035520;28;20057;-83
2023/01/02 13:02:49;;;;;;;6.70;2.33;;;;;;;;;;4995059;28;20064;-83
2023/01/02 13:05:21;;;;;;;9.05;2.67;;;;;;;;;;5041055;28;20054;-83
2023/01/02 13:07:51;;;;;;;3.13;2.25;;;;;;;;;;5029030;28;20045;-82
2023/01/02 13:10:20;;;;;;;4.38;2.65;;;;;;;;;;5027932;28;20060;-83
2023/01/02 13:12:48;;;;;;;9.38;2.00;;;;;;;;;;5021513;28;20037;-80
2023/01/02 13:15:21;;;;;;;4.00;1.92;;;;;;;;;;5019826;28;20041;-81
2023/01/02 13:17:59;;;;;;;5.28;2.42;;;;;;;;;;5016089;28;20049;-81
2023/01/02 13:20:39;;;;;;;8.73;2.10;;;;;;;;;;5018512;28;20053;-81
2023/01/02 13:23:24;;;;;;;5.22;1.75;;;;;;;;;;5019837;28;20056;-81
2023/01/02 13:26:00;;;;;;;4.82;1.98;;;;;;;;;;5018335;28;20057;-81
2023/01/02 13:28:27;;;;;;;3.78;2.53;;;;;;;;;;5021690;28;20061;-81
2023/01/02 13:31:00;;;;;;;3.33;2.17;;;;;;;;;;5019262;28;20057;-81
2023/01/02 13:33:34;;;;;;;2.70;2.10;;;;;;;;;;5021316;28;20072;-82
2023/01/02 13:36:15;;;;;;;5.20;2.42;;;;;;;;;;5017182;28;20303;-82
2023/01/02 13:38:44;;;;;;;6.47;2.67;;;;;;;;;;5017757;28;20049;-82
2023/01/02 13:41:14;;;;;;;7.88;2.10;;;;;;;;;;5018602;28;20049;-82
2023/01/02 13:43:42;;;;;;;3.40;2.15;;;;;;;;;;5005261;28;20049;-82
2023/01/02 13:46:10;;;;;;;10.35;2.65;;;;;;;;;;5020160;28;20038;-81
2023/01/02 13:48:39;;;;;;;4.13;2.00;;;;;;;;;;5019701;28;20470;-82
2023/01/02 13:51:14;;;;;;;6.68;2.50;;;;;;;;;;5013994;28;20056;-82
2023/01/02 13:53:43;;;;;;;11.20;2.85;;;;;;;;;;5019221;28;20399;-82
2023/01/02 13:56:12;;;;;;;8.15;3.13;;;;;;;;;;5019422;28;20053;-82
2023/01/02 13:58:46;;;;;;;7.95;3.05;;;;;;;;;;5021562;28;20056;-83
2023/01/02 14:01:52;;;;;;;7.90;2.55;;;;;;;;;;5018914;28;20087;-83
2023/01/02 14:04:44;;;;;;;3.83;2.30;;;;;;;;;;4995698;28;20061;-82
2023/01/02 14:07:48;;;;;;;2.63;1.95;;;;;;;;;;5018998;28;20050;-82
2023/01/02 14:10:42;;;;;;;5.50;2.30;;;;;;;;;;5012481;28;20042;-82
2023/01/02 14:13:12;;;;;;;7.63;2.28;;;;;;;;;;5020842;28;20064;-82
2023/01/02 14:15:57;;;;;;;4.45;2.85;;;;;;;;;;5014733;28;20045;-82
2023/01/02 14:18:29;;;;;;;8.15;3.38;;;;;;;;;;5042301;28;20491;-82
2023/01/02 14:20:56;;;;;;;6.22;2.50;;;;;;;;;;5024581;28;20542;-82
2023/01/02 14:23:29;;;;;;;6.40;3.10;;;;;;;;;;5029819;28;20054;-82
2023/01/02 14:26:01;;;;;;;4.85;2.17;;;;;;;;;;5028632;28;20053;-82
2023/01/02 14:28:30;;;;;;;3.75;2.00;;;;;;;;;;5037701;28;20519;-82
2023/01/02 14:30:58;;;;;;;5.13;3.33;;;;;;;;;;5041214;28;20048;-82
2023/01/02 14:33:30;;;;;;;5.80;3.10;;;;;;;;;;5035158;28;20049;-82
2023/01/02 14:36:04;;;;;;;8.27;2.78;;;;;;;;;;5036571;28;20415;-82
2023/01/02 14:38:39;;;;;;;4.78;2.78;;;;;;;;;;5016297;28;20057;-82
2023/01/02 14:43:57;;;;;;;5.88;3.25;;;;;;;;;;5011832;28;20060;-82
2023/01/02 14:46:31;;;;;;;8.80;3.50;;;;;;;;;;5031154;28;20040;-82
2023/01/02 14:49:06;;;;;;;6.22;2.90;;;;;;;;;;5026409;28;20061;-82
2023/01/02 14:51:39;;;;;;;6.22;3.88;;;;;;;;;;5039330;28;20049;-82
2023/01/02 14:54:14;;;;;;;7.60;2.70;;;;;;;;;;5035172;28;20049;-84
2023/01/02 14:56:43;;;;;;;8.25;2.67;;;;;;;;;;5026675;28;20049;-82
2023/01/02 14:59:15;;;;;;;;;;;;;;;;;;5033431;28;20068;-82
2023/01/02 15:01:47;;;;;;;7.18;3.80;;;;;;;;;;5035357;28;19929;-82
2023/01/02 15:04:20;;;;;;;4.85;3.55;;;;;;;;;;5036953;28;20053;-82
2023/01/02 15:06:50;;;;;;;7.68;3.40;;;;;;;;;;5011310;28;20060;-82
2023/01/02 15:09:27;;;;;;;4.85;3.65;;;;;;;;;;5044638;28;20052;-82
2023/01/02 15:14:46;;;;;;;7.43;3.35;;;;;;;;;;5036418;28;20048;-82
2023/01/02 15:17:19;;;;;;;5.55;4.28;;;;;;;;;;5030990;28;20041;-82
2023/01/02 15:19:47;;;;;;;7.30;3.38;;;;;;;;;;5028379;28;20397;-83
2023/01/02 15:22:17;;;;;;;9.38;3.25;;;;;;;;;;5027277;28;20081;-83